CheckWX is a tool to help pilots better visualize weather data.  It is not intended as a substitute for an official pre-flight weather briefing.

12:21:29 UTC

KAUM METAR
Austin Municipal Airport
Austin, Minnesota, USA
Current

5 mins ago

KAUM 251216Z AUTO 00000KT 10SM OVC038 02/M04 A3029 RMK AO2
Observed
Mar-25 @ 12:16 UTC
Visibility
10 SM
Flight Rules
VFR
Cloud Levels
  • Overcast at 3,800' AGL
Temperature
C / 36°F
Dewpoint
-4°C / 25°F
Humidity
65%
Altimeter
30.29" Hg
Pressure
1025.72 hPa
Previous

26 mins ago

KAUM 251155Z AUTO 06004KT 10SM OVC036 02/M04 A3029 RMK AO2
Observed
Mar-25 @ 11:55 UTC
Wind
  • 060° at 4 KTS
Visibility
10 SM
Flight Rules
VFR
Cloud Levels
  • Overcast at 3,600' AGL
Temperature
C / 36°F
Dewpoint
-4°C / 25°F
Humidity
65%
Altimeter
30.29" Hg
Pressure
1025.72 hPa
Previous

46 mins ago

KAUM 251135Z AUTO 05003KT 10SM OVC036 02/M04 A3029 RMK AO2
Observed
Mar-25 @ 11:35 UTC
Wind
  • 050° at 3 KTS
Visibility
10 SM
Flight Rules
VFR
Cloud Levels
  • Overcast at 3,600' AGL
Temperature
C / 36°F
Dewpoint
-4°C / 25°F
Humidity
65%
Altimeter
30.29" Hg
Pressure
1025.72 hPa